createdAt,value
2023-02-06T00:00:03.152Z,1036.8
2023-02-06T00:15:02.574Z,1036.7
2023-02-06T00:30:03.013Z,1036.7
2023-02-06T00:45:02.462Z,1036.6
2023-02-06T01:00:02.908Z,1036.6
2023-02-06T01:15:02.450Z,1036.5
2023-02-06T01:30:02.781Z,1036.5
2023-02-06T01:45:03.444Z,1036.5
2023-02-06T02:00:02.673Z,1036.5
2023-02-06T02:15:03.111Z,1036.6
2023-02-06T02:30:02.530Z,1036.4
2023-02-06T02:45:02.957Z,1036.7
2023-02-06T03:00:02.475Z,1036.5
2023-02-06T03:15:02.866Z,1036.3
2023-02-06T03:30:02.496Z,1036.4
2023-02-06T03:45:02.732Z,1036.6
2023-02-06T04:00:03.200Z,1036.6
2023-02-06T04:15:02.614Z,1036.6
2023-02-06T04:30:03.004Z,1036.6
2023-02-06T04:45:02.502Z,1036.6
2023-02-06T05:00:02.892Z,1036.5
2023-02-06T05:15:02.495Z,1036.4
2023-02-06T05:30:02.752Z,1036.3
2023-02-06T05:45:03.178Z,1036.3
2023-02-06T06:00:02.621Z,1036.3
2023-02-06T06:15:03.094Z,1036.2
2023-02-06T06:30:02.532Z,1036.1
2023-02-06T06:45:02.954Z,1036.3
2023-02-06T07:00:02.569Z,1036.4
2023-02-06T07:15:02.812Z,1036.3
2023-02-06T07:30:02.248Z,1036.4
2023-02-06T07:45:02.682Z,1036.2
2023-02-06T08:00:03.120Z,1036.3
2023-02-06T08:15:02.568Z,1036.3
2023-02-06T08:30:02.992Z,1036.4
2023-02-06T08:45:02.608Z,1036.7
2023-02-06T09:00:02.860Z,1036.5
2023-02-06T09:15:02.299Z,1036.7
2023-02-06T09:30:02.733Z,1036.7
2023-02-06T09:45:03.180Z,1036.5
2023-02-06T10:00:02.615Z,1036.7
2023-02-06T10:15:03.068Z,1036.4
2023-02-06T10:30:02.579Z,1036.3
2023-02-06T10:45:18.741Z,1036.2
2023-02-06T11:00:02.580Z,1036.2
2023-02-06T11:15:02.822Z,1036.1
2023-02-06T11:30:02.263Z,1036.0
2023-02-06T11:45:02.715Z,1036.0
2023-02-06T12:00:03.180Z,1035.9
2023-02-06T12:15:18.186Z,1036.0
2023-02-06T12:30:03.062Z,1036.0
2023-02-06T12:45:02.632Z,1035.9
2023-02-06T13:00:02.915Z,1035.8
2023-02-06T13:15:02.365Z,1035.7
2023-02-06T13:30:02.800Z,1035.4
2023-02-06T13:45:03.216Z,1035.4
2023-02-06T14:00:02.698Z,1035.3
2023-02-06T14:15:03.124Z,1035.4
2023-02-06T14:30:02.658Z,1035.4
2023-02-06T14:45:02.984Z,1035.7
2023-02-06T15:00:02.578Z,1035.3
2023-02-06T15:15:02.960Z,1035.1
2023-02-06T15:30:02.291Z,1035.2
2023-02-06T15:45:02.733Z,1035.1
2023-02-06T16:00:03.236Z,1035.1
2023-02-06T16:15:02.723Z,1035.2
2023-02-06T16:30:03.076Z,1035.1
2023-02-06T16:45:02.675Z,1035.1
2023-02-06T17:00:02.953Z,1035.2
2023-02-06T17:15:02.386Z,1035.4
2023-02-06T17:30:02.882Z,1035.5
2023-02-06T17:45:02.259Z,1035.5
2023-02-06T18:00:02.716Z,1035.6
2023-02-06T18:15:03.184Z,1035.6
2023-02-06T18:30:02.721Z,1035.5
2023-02-06T18:45:04.260Z,1035.4
2023-02-06T19:00:02.682Z,1035.4
2023-02-06T19:15:02.922Z,1035.5
2023-02-06T19:30:02.377Z,1035.5
2023-02-06T19:45:02.803Z,1035.5
2023-02-06T20:00:03.235Z,1035.8
2023-02-06T20:15:02.746Z,1035.9
2023-02-06T20:30:03.123Z,1036.1
2023-02-06T20:45:02.763Z,1036.1
2023-02-06T21:00:03.044Z,1036.0
2023-02-06T21:15:02.461Z,1036.1
2023-02-06T21:30:02.887Z,1036.2
2023-02-06T21:45:02.326Z,1036.3
2023-02-06T22:00:02.810Z,1036.1
2023-02-06T22:15:03.195Z,1036.2
2023-02-06T22:30:02.804Z,1036.2
2023-02-06T22:45:03.063Z,1036.1
2023-02-06T23:00:02.540Z,1036.3
2023-02-06T23:30:02.402Z,1036.4
2023-02-06T23:45:02.834Z,1036.4
